Time;durP1;ratioP1;P1;durP2;ratioP2;P2;SDS_P1;SDS_P2;PMS_P1;PMS_P2;Temp;Humidity;BMP_temperature;BMP_pressure;BME280_temperature;BME280_humidity;BME280_pressure;Samples;Min_cycle;Max_cycle;Signal;HPM_P1;HPM_P2
2022/01/27 00:00:36;;;;;;;;;;;;;;;11.65;52.17;102712.56;5099854;28;19920;-83
2022/01/27 00:05:34;;;;;;;;;;;;;;;11.17;53.56;102715.38;5100332;28;19927;-83
2022/01/27 00:12:58;;;;;;;;;;;;;;;11.73;52.06;102696.16;5101016;28;19923;-83
2022/01/27 00:15:30;;;;;;;;;;;;;;;12.27;51.64;102691.28;5099303;28;19916;-82
2022/01/27 00:18:00;;;;;;;;;;;;;;;11.45;52.93;102694.03;5098638;28;19916;-82
2022/01/27 00:20:25;;;;;;;;;;;;;;;11.85;52.21;102694.94;5099017;28;20369;-83
2022/01/27 00:22:50;;;;;;;;;;;;;;;11.93;51.55;102709.25;5098975;28;20019;-83
2022/01/27 00:25:15;;;;;;;;;;;;;;;11.68;52.53;102700.75;5100002;28;19938;-83
2022/01/27 00:27:41;;;;;;;;;;;;;;;11.82;52.41;102708.56;5099780;28;19942;-83
2022/01/27 00:30:07;;;;;;;;;;;;;;;12.01;52.35;102704.53;5097903;28;19942;-82
2022/01/27 00:32:33;;;;;;;;;;;;;;;11.13;53.44;102708.25;5098423;28;20023;-84
2022/01/27 00:34:59;;;;;;;;;;;;;;;11.07;55.08;102700.25;5099717;28;20393;-82
2022/01/27 00:37:24;;;;;;;;;;;;;;;11.47;53.69;102696.69;5098325;28;19912;-82
2022/01/27 00:39:49;;;;;;;;;;;;;;;11.25;53.12;102691.75;5098560;28;20010;-82
2022/01/27 00:42:15;;;;;;;;;;;;;;;10.99;53.29;102674.22;5098413;28;20373;-82
2022/01/27 00:44:40;;;;;;;;;;;;;;;11.08;52.99;102688.47;5098050;28;20374;-82
2022/01/27 00:47:05;;;;;;;;;;;;;;;11.78;50.59;102701.47;5098202;28;19923;-82
2022/01/27 00:49:31;;;;;;;;;;;;;;;11.85;50.93;102697.66;5097741;28;19930;-84
2022/01/27 00:51:57;;;;;;;;;;;;;;;11.10;52.52;102697.50;5097894;28;20330;-83
2022/01/27 00:54:26;;;;;;;;;;;;;;;10.96;52.09;102687.81;5097626;28;19938;-82
2022/01/27 00:57:23;;;;;;;;;;;;;;;11.87;50.54;102696.69;5098008;28;20320;-82
2022/01/27 00:59:51;;;;;;;;;;;;;;;11.67;50.62;102693.53;5098520;28;19924;-83
2022/01/27 01:02:47;;;;;;;;;;;;;;;11.40;51.69;102689.63;5097958;28;20274;-83
2022/01/27 01:05:42;;;;;;;;;;;;;;;11.89;50.12;102667.72;5098670;28;19916;-82
2022/01/27 01:15:54;;;;;;;;;;;;;;;12.34;49.33;102631.38;5098867;28;19916;-83
2022/01/27 01:31:44;;;;;;;;;;;;;;;10.81;52.73;102620.44;5098881;28;19942;-83
2022/01/27 01:34:14;;;;;;;;;;;;;;;10.89;53.84;102612.16;5097368;28;19924;-83
2022/01/27 01:39:29;;;;;;;;;;;;;;;12.35;49.61;102589.72;5098343;28;19993;-83
2022/01/27 01:41:55;;;;;;;;;;;;;;;11.59;51.52;102587.13;5097192;28;19922;-83
2022/01/27 01:44:20;;;;;;;;;;;;;;;11.30;52.24;102580.56;5098444;28;20010;-83
2022/01/27 01:46:46;;;;;;;;;;;;;;;10.73;52.97;102596.19;5096957;28;19920;-83
2022/01/27 01:49:11;;;;;;;;;;;;;;;11.63;51.90;102603.25;5097217;28;19942;-82
2022/01/27 01:51:38;;;;;;;;;;;;;;;11.20;52.82;102617.78;5098186;28;20332;-83
2022/01/27 01:54:04;;;;;;;;;;;;;;;11.15;52.29;102601.63;5097102;28;19920;-82
2022/01/27 01:56:29;;;;;;;;;;;;;;;9.70;56.83;102609.72;5096811;28;20284;-83
2022/01/27 01:58:54;;;;;;;;;;;;;;;10.64;54.01;102597.28;5096407;28;19922;-83
2022/01/27 02:01:20;;;;;;;;;;;;;;;10.77;54.11;102599.75;5096661;28;19916;-83
2022/01/27 02:03:46;;;;;;;;;;;;;;;10.94;53.98;102589.44;5097412;28;19920;-84
2022/01/27 02:06:19;;;;;;;;;;;;;;;10.13;55.99;102577.47;5097175;28;19920;-83
2022/01/27 02:19:39;;;;;;;;;;;;;;;9.99;56.81;102586.72;5097590;28;19966;-83
2022/01/27 02:22:05;;;;;;;;;;;;;;;10.79;55.73;102606.94;5096224;28;19921;-82
2022/01/27 02:24:31;;;;;;;;;;;;;;;9.86;57.49;102601.38;5095453;28;20400;-82
2022/01/27 02:26:57;;;;;;;;;;;;;;;11.26;54.80;102586.97;5096245;28;19922;-83
2022/01/27 02:29:23;;;;;;;;;;;;;;;10.25;56.45;102588.06;5096051;28;20010;-82
2022/01/27 02:31:49;;;;;;;;;;;;;;;10.16;56.59;102610.78;5097199;28;19987;-83
2022/01/27 02:34:14;;;;;;;;;;;;;;;10.43;57.48;102601.31;5098350;28;19923;-83
2022/01/27 02:36:40;;;;;;;;;;;;;;;10.89;55.47;102596.78;5098089;28;19916;-83
2022/01/27 02:39:06;;;;;;;;;;;;;;;10.66;55.35;102593.66;5096123;28;19916;-84
2022/01/27 02:41:36;;;;;;;;;;;;;;;10.63;55.74;102592.78;5096333;28;20370;-83
2022/01/27 02:44:01;;;;;;;;;;;;;;;10.67;55.71;102596.31;5096108;28;20302;-82
2022/01/27 02:46:30;;;;;;;;;;;;;;;11.42;54.20;102582.97;5096323;28;19966;-82
2022/01/27 02:48:56;;;;;;;;;;;;;;;11.22;54.13;102579.81;5096388;28;19972;-83
2022/01/27 02:51:21;;;;;;;;;;;;;;;11.68;53.15;102571.53;5096207;28;20377;-84
2022/01/27 02:53:46;;;;;;;;;;;;;;;10.78;55.16;102556.41;5096253;28;19931;-83
2022/01/27 02:56:12;;;;;;;;;;;;;;;10.20;57.29;102566.50;5095869;28;19916;-82
2022/01/27 02:58:37;;;;;;;;;;;;;;;10.72;55.63;102547.50;5095963;28;20012;-83
2022/01/27 03:01:03;;;;;;;;;;;;;;;11.51;53.16;102538.50;5095716;28;19920;-83
2022/01/27 03:03:29;;;;;;;;;;;;;;;11.72;53.17;102523.53;5097381;28;19956;-84
2022/01/27 03:05:54;;;;;;;;;;;;;;;11.93;52.16;102516.69;5096251;28;19923;-83
2022/01/27 03:08:19;;;;;;;;;;;;;;;11.33;54.04;102516.34;5096231;28;19916;-83
2022/01/27 03:10:49;;;;;;;;;;;;;;;10.79;55.48;102511.25;5096249;28;19923;-84
2022/01/27 03:13:15;;;;;;;;;;;;;;;11.44;55.44;102507.06;5095947;28;20369;-84
2022/01/27 03:15:40;;;;;;;;;;;;;;;11.49;54.93;102505.16;5097211;28;20296;-82
2022/01/27 03:18:05;;;;;;;;;;;;;;;11.26;55.51;102502.97;5096891;28;19916;-83
2022/01/27 03:20:34;;;;;;;;;;;;;;;10.78;56.71;102504.09;5095845;28;20334;-84
2022/01/27 03:23:00;;;;;;;;;;;;;;;10.50;58.47;102496.53;5095065;28;19921;-83
2022/01/27 03:25:26;;;;;;;;;;;;;;;10.58;56.98;102494.56;5095621;28;19916;-83
2022/01/27 03:27:51;;;;;;;;;;;;;;;10.53;57.90;102493.75;5095695;28;20397;-83
2022/01/27 03:30:17;;;;;;;;;;;;;;;11.52;55.67;102494.22;5097395;28;19916;-85
2022/01/27 03:32:42;;;;;;;;;;;;;;;11.24;55.83;102486.75;5095821;28;19955;-83
2022/01/27 03:35:08;;;;;;;;;;;;;;;10.40;59.50;102478.69;5098129;28;20365;-83
2022/01/27 03:37:33;;;;;;;;;;;;;;;10.61;58.67;102478.28;5099290;28;20011;-82
2022/01/27 03:39:59;;;;;;;;;;;;;;;10.68;57.71;102473.59;5099046;28;19970;-83
2022/01/27 03:42:25;;;;;;;;;;;;;;;11.77;54.90;102471.91;5098836;28;19923;-83
2022/01/27 03:44:50;;;;;;;;;;;;;;;10.56;58.76;102457.63;5098930;28;19916;-83
2022/01/27 03:47:15;;;;;;;;;;;;;;;10.18;59.78;102453.91;5099151;28;19924;-82
2022/01/27 03:49:40;;;;;;;;;;;;;;;11.11;58.12;102448.25;5099316;28;19920;-83
2022/01/27 03:52:06;;;;;;;;;;;;;;;11.22;57.38;102433.53;5098738;28;19931;-84
2022/01/27 03:54:31;;;;;;;;;;;;;;;10.68;58.97;102445.66;5098966;28;19916;-82
2022/01/27 03:56:57;;;;;;;;;;;;;;;10.67;60.38;102450.16;5099107;28;19959;-83
2022/01/27 03:59:22;;;;;;;;;;;;;;;11.31;57.85;102438.75;5099077;28;19962;-82
2022/01/27 04:01:47;;;;;;;;;;;;;;;10.90;60.48;102430.69;5099186;28;19916;-82
2022/01/27 04:04:14;;;;;;;;;;;;;;;10.85;58.77;102438.03;5099259;28;19924;-83
2022/01/27 04:06:40;;;;;;;;;;;;;;;11.47;58.06;102436.53;5098701;28;19916;-83
2022/01/27 04:09:10;;;;;;;;;;;;;;;11.23;57.33;102444.38;5099027;28;20366;-82
2022/01/27 04:11:36;;;;;;;;;;;;;;;10.70;58.87;102441.09;5099060;28;19917;-82
2022/01/27 04:14:01;;;;;;;;;;;;;;;10.65;60.56;102462.84;5099846;28;19916;-82
2022/01/27 04:16:26;;;;;;;;;;;;;;;10.99;60.21;102438.59;5098520;28;20387;-82
2022/01/27 04:18:51;;;;;;;;;;;;;;;10.29;63.37;102433.78;5098771;28;20354;-83
2022/01/27 04:21:17;;;;;;;;;;;;;;;11.55;57.87;102429.09;5098528;28;19967;-83
2022/01/27 04:23:42;;;;;;;;;;;;;;;10.66;61.41;102431.25;5099879;28;19921;-82
2022/01/27 04:26:09;;;;;;;;;;;;;;;11.15;60.19;102421.97;5098137;28;19920;-83
2022/01/27 04:28:36;;;;;;;;;;;;;;;11.63;57.96;102418.94;5098722;28;19920;-83
2022/01/27 04:31:05;;;;;;;;;;;;;;;11.16;59.90;102415.63;5098660;28;19942;-83
2022/01/27 04:33:32;;;;;;;;;;;;;;;10.38;60.99;102411.09;5099978;28;19959;-83
2022/01/27 04:36:01;;;;;;;;;;;;;;;11.78;58.61;102411.31;5098878;28;19955;-83
2022/01/27 04:41:14;;;;;;;;;;;;;;;11.69;58.58;102405.22;5099564;28;19920;-83
2022/01/27 04:48:48;;;;;;;;;;;;;;;11.59;60.11;102405.50;5099372;28;19916;-83
2022/01/27 04:51:16;;;;;;;;;;;;;;;11.40;60.25;102395.16;5098173;28;19920;-83
2022/01/27 04:53:51;;;;;;;;;;;;;;;12.13;58.08;102410.34;5099843;28;19965;-83
2022/01/27 04:56:18;;;;;;;;;;;;;;;11.82;58.06;102413.00;5099014;28;19991;-83
2022/01/27 04:58:46;;;;;;;;;;;;;;;11.45;59.70;102408.59;5099065;28;19965;-83
2022/01/27 05:01:15;;;;;;;;;;;;;;;11.75;58.76;102409.56;5098843;28;21113;-83
2022/01/27 05:03:46;;;;;;;;;;;;;;;12.32;58.10;102402.56;5097744;28;19916;-84
2022/01/27 05:06:11;;;;;;;;;;;;;;;11.57;59.76;102397.41;5097626;28;20438;-83
2022/01/27 05:08:37;;;;;;;;;;;;;;;11.84;58.46;102395.75;5098923;28;19967;-83
2022/01/27 05:11:12;;;;;;;;;;;;;;;11.68;58.54;102392.59;5097435;28;19916;-84
2022/01/27 05:13:49;;;;;;;;;;;;;;;11.14;61.34;102396.72;5097579;28;20393;-82
2022/01/27 05:16:14;;;;;;;;;;;;;;;11.57;59.18;102392.00;5097849;28;19916;-83
2022/01/27 05:18:40;;;;;;;;;;;;;;;11.26;60.51;102402.75;5097858;28;19927;-83
2022/01/27 05:21:05;;;;;;;;;;;;;;;11.53;59.62;102388.50;5098709;28;19920;-83
2022/01/27 05:23:30;;;;;;;;;;;;;;;12.22;57.59;102391.06;5097378;28;19920;-83
2022/01/27 05:25:55;;;;;;;;;;;;;;;12.12;58.53;102384.13;5097309;28;19916;-83
2022/01/27 05:28:21;;;;;;;;;;;;;;;11.74;58.47;102383.38;5101324;28;19983;-82
2022/01/27 05:30:46;;;;;;;;;;;;;;;11.51;60.45;102381.31;5101307;28;20281;-82
2022/01/27 05:33:11;;;;;;;;;;;;;;;12.55;58.10;102385.56;5103077;28;19959;-82
2022/01/27 05:35:37;;;;;;;;;;;;;;;11.93;58.05;102381.09;5101577;28;19973;-82
2022/01/27 05:38:02;;;;;;;;;;;;;;;11.52;60.87;102374.97;5101533;28;19916;-84
2022/01/27 05:40:28;;;;;;;;;;;;;;;12.32;57.58;102371.81;5101572;28;19927;-83
2022/01/27 05:42:53;;;;;;;;;;;;;;;11.82;59.41;102366.91;5101670;28;19916;-82
2022/01/27 05:45:18;;;;;;;;;;;;;;;12.35;59.25;102359.03;5101292;28;19942;-83
2022/01/27 05:47:44;;;;;;;;;;;;;;;12.63;57.79;102370.88;5101208;28;19960;-84
2022/01/27 05:50:09;;;;;;;;;;;;;;;12.24;57.36;102358.47;5102342;28;19970;-83
2022/01/27 05:52:34;;;;;;;;;;;;;;;12.11;58.34;102362.47;5102145;28;20011;-83
2022/01/27 05:54:59;;;;;;;;;;;;;;;12.45;58.78;102362.34;5102438;28;20073;-83
2022/01/27 05:57:25;;;;;;;;;;;;;;;11.72;59.03;102355.44;5100310;28;19916;-83
2022/01/27 05:59:50;;;;;;;;;;;;;;;12.17;57.83;102346.94;5096338;28;19922;-84
2022/01/27 06:02:15;;;;;;;;;;;;;;;12.21;59.38;102348.63;5096718;28;19917;-84
2022/01/27 06:04:40;;;;;;;;;;;;;;;12.62;57.55;102352.78;5096629;28;20003;-84
2022/01/27 06:07:06;;;;;;;;;;;;;;;11.86;59.66;102358.63;5097271;28;20378;-84
2022/01/27 06:09:31;;;;;;;;;;;;;;;12.41;59.02;102345.28;5098149;28;19958;-85
2022/01/27 06:11:56;;;;;;;;;;;;;;;11.95;59.51;102337.66;5094880;28;20387;-85
2022/01/27 06:14:21;;;;;;;;;;;;;;;11.94;59.94;102349.44;5092512;28;20350;-83
2022/01/27 06:16:47;;;;;;;;;;;;;;;12.23;60.21;102335.88;5092346;28;20374;-84
2022/01/27 06:19:12;;;;;;;;;;;;;;;11.82;61.53;102329.84;5093336;28;20430;-83
2022/01/27 06:21:39;;;;;;;;;;;;;;;12.34;59.25;102334.66;5094115;28;19942;-84
2022/01/27 06:24:05;;;;;;;;;;;;;;;12.85;57.64;102333.06;5093449;28;19982;-84
2022/01/27 06:26:30;;;;;;;;;;;;;;;11.92;59.12;102335.88;5093447;28;19918;-83
2022/01/27 06:28:56;;;;;;;;;;;;;;;11.94;59.99;102322.31;5096027;28;19978;-83
2022/01/27 06:31:21;;;;;;;;;;;;;;;11.85;60.58;102335.19;5092097;28;20347;-88
2022/01/27 06:33:46;;;;;;;;;;;;;;;12.29;59.94;102345.66;5092287;28;19923;-85
2022/01/27 06:36:12;;;;;;;;;;;;;;;12.97;57.20;102318.13;5093168;28;20448;-84
2022/01/27 06:38:37;;;;;;;;;;;;;;;12.61;58.53;102323.88;5091898;28;19920;-83
2022/01/27 06:41:02;;;;;;;;;;;;;;;12.54;59.59;102325.88;5091852;28;19942;-84
2022/01/27 06:43:27;;;;;;;;;;;;;;;12.61;59.54;102329.31;5093054;28;19917;-81
2022/01/27 06:45:53;;;;;;;;;;;;;;;12.73;59.00;102326.19;5091756;28;19916;-83
2022/01/27 06:48:18;;;;;;;;;;;;;;;12.82;58.39;102327.69;5092375;28;19923;-84
2022/01/27 06:50:43;;;;;;;;;;;;;;;12.49;59.99;102339.59;5092333;28;19916;-82
2022/01/27 06:53:09;;;;;;;;;;;;;;;13.03;58.09;102334.22;5093173;28;19924;-85
2022/01/27 06:55:34;;;;;;;;;;;;;;;12.92;58.69;102340.03;5091451;28;19920;-81
2022/01/27 06:57:59;;;;;;;;;;;;;;;12.82;59.26;102330.41;5091457;28;19916;-86
2022/01/27 07:00:24;;;;;;;;;;;;;;;12.40;62.10;102351.63;5092263;28;19952;-84
2022/01/27 07:02:50;;;;;;;;;;;;;;;12.64;62.87;102346.38;5092480;28;19916;-84
2022/01/27 07:05:17;;;;;;;;;;;;;;;12.69;62.42;102349.81;5092051;28;19916;-90
2022/01/27 07:07:42;;;;;;;;;;;;;;;12.27;64.34;102350.22;5091618;28;20010;-82
2022/01/27 07:10:07;;;;;;;;;;;;;;;12.95;62.73;102350.78;5094258;28;20007;-82
2022/01/27 07:12:33;;;;;;;;;;;;;;;12.70;63.39;102346.19;5100610;28;20004;-82
2022/01/27 07:14:58;;;;;;;;;;;;;;;13.03;63.69;102359.59;5105203;28;19916;-82
2022/01/27 07:17:24;;;;;;;;;;;;;;;12.46;65.92;102357.84;5109020;28;20475;-83
2022/01/27 07:19:49;;;;;;;;;;;;;;;12.81;64.91;102343.09;5117063;28;19920;-83
2022/01/27 07:22:14;;;;;;;;;;;;;;;12.31;65.93;102360.06;5117070;28;20453;-83
2022/01/27 07:24:39;;;;;;;;;;;;;;;12.22;68.13;102361.22;5116213;28;20317;-84
2022/01/27 07:27:05;;;;;;;;;;;;;;;12.16;68.74;102347.84;5116077;28;19923;-84
2022/01/27 07:29:30;;;;;;;;;;;;;;;12.39;68.04;102362.53;5116928;28;20006;-84
2022/01/27 07:31:56;;;;;;;;;;;;;;;11.91;68.91;102360.34;5116870;28;19915;-82
2022/01/27 07:34:21;;;;;;;;;;;;;;;12.53;68.38;102364.81;5115773;28;19920;-84
2022/01/27 07:36:47;;;;;;;;;;;;;;;13.00;66.45;102358.78;5114710;28;20404;-83
2022/01/27 07:39:15;;;;;;;;;;;;;;;11.86;69.18;102357.75;5115538;28;19916;-84
2022/01/27 07:41:41;;;;;;;;;;;;;;;11.63;71.32;102358.41;5115127;28;19915;-84
2022/01/27 07:44:06;;;;;;;;;;;;;;;12.57;67.74;102370.09;5115386;28;19916;-83
2022/01/27 07:46:32;;;;;;;;;;;;;;;12.99;66.29;102366.06;5119857;28;19916;-82
2022/01/27 07:48:58;;;;;;;;;;;;;;;12.38;68.62;102375.22;5115712;28;20045;-83
2022/01/27 07:51:24;;;;;;;;;;;;;;;12.45;67.40;102366.91;5122019;28;19927;-81
2022/01/27 07:53:49;;;;;;;;;;;;;;;12.77;67.04;102372.19;5117827;28;19920;-82
2022/01/27 07:56:14;;;;;;;;;;;;;;;12.63;67.31;102373.59;5117635;28;19916;-80
2022/01/27 07:58:43;;;;;;;;;;;;;;;12.82;67.87;102373.84;5117402;28;19916;-83
2022/01/27 08:01:11;;;;;;;;;;;;;;;13.02;66.88;102368.66;5112799;28;19926;-83
2022/01/27 08:03:37;;;;;;;;;;;;;;;12.87;68.39;102371.91;5094115;28;19969;-83
2022/01/27 08:06:05;;;;;;;;;;;;;;;12.73;67.52;102373.22;5095617;28;20020;-82
2022/01/27 08:08:31;;;;;;;;;;;;;;;12.10;71.55;102377.00;5094646;28;20259;-85
2022/01/27 08:10:56;;;;;;;;;;;;;;;12.64;68.12;102372.66;5094430;28;19923;-83
2022/01/27 08:13:21;;;;;;;;;;;;;;;13.65;64.37;102373.78;5086351;28;19920;-84
2022/01/27 08:15:46;;;;;;;;;;;;;;;12.17;71.02;102367.75;5095624;28;19924;-86
2022/01/27 08:18:12;;;;;;;;;;;;;;;12.50;69.63;102376.69;5094393;28;19920;-83
2022/01/27 08:20:37;;;;;;;;;;;;;;;12.63;70.11;102377.19;5096216;28;20357;-86
2022/01/27 08:23:05;;;;;;;;;;;;;;;13.11;68.51;102381.94;5093051;28;19920;-85
2022/01/27 08:25:30;;;;;;;;;;;;;;;12.09;71.36;102372.50;5093235;28;19916;-83
2022/01/27 08:27:58;;;;;;;;;;;;;;;12.32;70.64;102371.81;5092547;28;20289;-81
2022/01/27 08:30:27;;;;;;;;;;;;;;;12.47;70.22;102373.16;5092887;28;20339;-83
2022/01/27 08:33:04;;;;;;;;;;;;;;;12.84;69.26;102375.59;5092587;28;19920;-82
2022/01/27 08:35:30;;;;;;;;;;;;;;;12.57;69.90;102377.38;5092569;28;19923;-82
2022/01/27 08:37:55;;;;;;;;;;;;;;;12.61;70.01;102378.19;5092054;28;19920;-82
2022/01/27 08:40:21;;;;;;;;;;;;;;;12.55;70.55;102373.81;5094235;28;20365;-83
2022/01/27 08:42:46;;;;;;;;;;;;;;;12.49;71.20;102379.44;5093354;28;19916;-83
2022/01/27 08:45:12;;;;;;;;;;;;;;;12.75;69.44;102370.47;5092202;28;20576;-83
2022/01/27 08:47:38;;;;;;;;;;;;;;;12.96;69.40;102370.72;5089777;28;19965;-85
2022/01/27 08:50:05;;;;;;;;;;;;;;;13.12;68.78;102362.00;5092413;28;20023;-81
2022/01/27 08:52:30;;;;;;;;;;;;;;;11.50;74.20;102371.41;5094208;28;19949;-85
2022/01/27 08:54:55;;;;;;;;;;;;;;;12.93;70.71;102364.41;5094917;28;19926;-82
2022/01/27 08:57:20;;;;;;;;;;;;;;;12.46;70.20;102365.97;5095111;28;19956;-82
2022/01/27 08:59:47;;;;;;;;;;;;;;;12.76;69.70;102375.84;5100447;28;19962;-82
2022/01/27 09:02:12;;;;;;;;;;;;;;;12.84;68.88;102380.16;5103649;28;19969;-80
2022/01/27 09:04:39;;;;;;;;;;;;;;;12.95;68.69;102369.81;5101404;28;19913;-85
2022/01/27 09:07:04;;;;;;;;;;;;;;;13.14;68.04;102367.38;5095059;28;20417;-81
2022/01/27 09:09:29;;;;;;;;;;;;;;;13.55;67.59;102361.47;5094477;28;19916;-83
2022/01/27 09:11:57;;;;;;;;;;;;;;;12.19;70.13;102374.88;5100290;28;19916;-77
2022/01/27 09:14:22;;;;;;;;;;;;;;;12.98;68.86;102356.13;5100763;28;19916;-79
2022/01/27 09:16:47;;;;;;;;;;;;;;;12.52;69.34;102363.06;5093582;28;20015;-84
2022/01/27 09:19:13;;;;;;;;;;;;;;;12.43;69.59;102355.22;5087769;28;20605;-83
2022/01/27 09:21:43;;;;;;;;;;;;;;;12.96;68.27;102359.84;5081279;28;19920;-83
2022/01/27 09:24:14;;;;;;;;;;;;;;;13.28;66.57;102348.75;5072769;28;19987;-82
2022/01/27 09:29:05;;;;;;;;;;;;;;;12.31;68.59;102357.34;5077728;28;19918;-85
2022/01/27 09:31:31;;;;;;;;;;;;;;;12.92;68.13;102361.75;5094035;28;19916;-83
2022/01/27 09:33:56;;;;;;;;;;;;;;;13.03;68.74;102353.25;5094109;28;19946;-83
2022/01/27 09:36:21;;;;;;;;;;;;;;;12.97;66.51;102340.78;5093900;28;19939;-83
2022/01/27 09:38:46;;;;;;;;;;;;;;;13.18;67.31;102360.91;5093255;28;20455;-83
2022/01/27 09:41:14;;;;;;;;;;;;;;;13.10;68.27;102360.25;5098779;28;19923;-79
2022/01/27 09:43:41;;;;;;;;;;;;;;;13.51;67.15;102360.66;5097440;28;19920;-82
2022/01/27 09:46:07;;;;;;;;;;;;;;;12.89;67.98;102364.56;5093197;28;19927;-80
2022/01/27 09:48:40;;;;;;;;;;;;;;;12.64;69.12;102375.38;5091738;28;19921;-81
2022/01/27 09:53:36;;;;;;;;;;;;;;;13.19;66.99;102375.38;5092627;28;19923;-81
2022/01/27 09:56:01;;;;;;;;;;;;;;;13.96;64.12;102376.25;5091464;28;19916;-83
2022/01/27 09:58:27;;;;;;;;;;;;;;;12.82;67.07;102376.56;5091048;28;19920;-83
2022/01/27 10:00:52;;;;;;;;;;;;;;;12.86;68.04;102367.41;5092190;28;19930;-82
2022/01/27 10:03:18;;;;;;;;;;;;;;;13.88;64.59;102369.34;5091173;28;20301;-82
2022/01/27 10:05:44;;;;;;;;;;;;;;;13.46;66.28;102379.00;5091232;28;19920;-84
2022/01/27 10:08:12;;;;;;;;;;;;;;;13.82;64.81;102371.31;5090861;28;19924;-83
2022/01/27 10:10:41;;;;;;;;;;;;;;;13.06;67.36;102373.06;5089262;28;19919;-80
2022/01/27 10:13:09;;;;;;;;;;;;;;;12.98;66.71;102366.09;5090604;28;19927;-80
2022/01/27 10:15:37;;;;;;;;;;;;;;;12.73;67.82;102378.66;5090323;28;20304;-83
2022/01/27 10:18:14;;;;;;;;;;;;;;;12.79;68.12;102382.09;5090498;28;19919;-82
2022/01/27 10:20:41;;;;;;;;;;;;;;;13.07;67.48;102387.53;5090170;28;19930;-83
2022/01/27 10:23:15;;;;;;;;;;;;;;;13.37;67.27;102379.31;5090307;28;20002;-81
2022/01/27 10:25:49;;;;;;;;;;;;;;;13.30;65.93;102381.34;5090230;28;19988;-79
2022/01/27 10:28:31;;;;;;;;;;;;;;;14.21;62.55;102366.31;5091575;28;20497;-82
2022/01/27 10:31:20;;;;;;;;;;;;;;;13.95;64.21;102387.19;5089427;28;19948;-82
2022/01/27 10:33:45;;;;;;;;;;;;;;;13.88;62.84;102380.22;5083392;28;19916;-82
2022/01/27 10:36:14;;;;;;;;;;;;;;;12.67;68.20;102386.13;5091922;28;20011;-82
2022/01/27 10:38:40;;;;;;;;;;;;;;;13.53;65.93;102388.72;5090320;28;20435;-83
2022/01/27 10:41:07;;;;;;;;;;;;;;;13.53;67.02;102388.72;5090409;28;19916;-82
2022/01/27 10:43:33;;;;;;;;;;;;;;;12.58;69.49;102395.44;5089500;28;20012;-81
2022/01/27 10:46:20;;;;;;;;;;;;;;;13.50;66.17;102379.75;5093872;28;19927;-81
2022/01/27 10:48:51;;;;;;;;;;;;;;;14.30;63.34;102382.28;5094556;28;19995;-82
2022/01/27 10:51:23;;;;;;;;;;;;;;;13.87;64.42;102373.88;5094306;28;19943;-82
2022/01/27 10:53:54;;;;;;;;;;;;;;;13.39;65.38;102383.75;5094238;28;19928;-81
2022/01/27 10:56:29;;;;;;;;;;;;;;;13.37;65.45;102382.91;5095053;28;20418;-81
2022/01/27 10:58:56;;;;;;;;;;;;;;;13.29;68.72;102382.25;5095598;28;19923;-82
2022/01/27 11:01:22;;;;;;;;;;;;;;;13.47;67.29;102387.09;5094005;28;19916;-82
2022/01/27 11:03:52;;;;;;;;;;;;;;;13.90;65.36;102400.09;5094005;28;19924;-79
2022/01/27 11:06:18;;;;;;;;;;;;;;;13.49;66.88;102392.47;5094101;28;19916;-82
2022/01/27 11:08:43;;;;;;;;;;;;;;;13.58;66.80;102393.97;5096657;28;19916;-86
2022/01/27 11:11:09;;;;;;;;;;;;;;;13.99;64.45;102388.88;5095234;28;19923;-81
2022/01/27 11:13:35;;;;;;;;;;;;;;;13.16;67.51;102386.34;5096480;28;19920;-80
2022/01/27 11:16:03;;;;;;;;;;;;;;;13.41;66.21;102391.88;5096479;28;19916;-81
2022/01/27 11:18:29;;;;;;;;;;;;;;;13.76;64.98;102371.56;5094045;28;20304;-83
2022/01/27 11:21:08;;;;;;;;;;;;;;;13.98;65.83;102374.38;5096003;28;19924;-85
2022/01/27 11:26:09;;;;;;;;;;;;;;;13.36;66.35;102374.81;5092370;28;20399;-81
2022/01/27 11:28:36;;;;;;;;;;;;;;;14.02;65.17;102374.25;5095306;28;20411;-81
2022/01/27 11:31:10;;;;;;;;;;;;;;;13.86;65.21;102371.22;5094462;28;20385;-82
2022/01/27 11:33:37;;;;;;;;;;;;;;;13.46;67.14;102374.44;5091065;28;19916;-83
2022/01/27 11:36:10;;;;;;;;;;;;;;;13.20;68.52;102377.16;5093698;28;20401;-82
2022/01/27 11:38:37;;;;;;;;;;;;;;;13.77;66.76;102372.47;5093019;28;19959;-82
2022/01/27 11:41:02;;;;;;;;;;;;;;;13.60;66.68;102383.94;5094764;28;20278;-83
2022/01/27 11:43:35;;;;;;;;;;;;;;;14.00;65.44;102366.16;5094806;28;19924;-83
2022/01/27 11:46:14;;;;;;;;;;;;;;;14.21;64.77;102372.63;5090931;28;20362;-83
2022/01/27 11:48:39;;;;;;;;;;;;;;;14.29;64.13;102364.16;5091236;28;19939;-83
2022/01/27 11:51:06;;;;;;;;;;;;;;;13.82;65.48;102375.88;5094939;28;20251;-82
2022/01/27 11:53:43;;;;;;;;;;;;;;;14.36;64.05;102373.88;5094740;28;20462;-82
2022/01/27 11:56:23;;;;;;;;;;;;;;;14.06;64.66;102368.66;5092876;28;19985;-82
2022/01/27 11:58:53;;;;;;;;;;;;;;;13.76;65.70;102379.72;5097096;28;19931;-81
2022/01/27 12:01:21;;;;;;;;;;;;;;;14.46;63.82;102380.72;5101610;28;19920;-83
2022/01/27 12:04:07;;;;;;;;;;;;;;;14.35;63.38;102381.13;5098055;28;19923;-83
2022/01/27 12:06:53;;;;;;;;;;;;;;;13.75;64.84;102390.66;5096363;28;19916;-82
2022/01/27 12:09:18;;;;;;;;;;;;;;;14.04;64.63;102385.97;5087251;28;19920;-82
2022/01/27 12:11:49;;;;;;;;;;;;;;;14.11;64.62;102369.34;5095985;28;19938;-82
2022/01/27 12:14:18;;;;;;;;;;;;;;;14.18;63.51;102378.19;5094332;28;20446;-81
2022/01/27 12:19:14;;;;;;;;;;;;;;;14.49;63.39;102380.59;5095167;28;20289;-81
2022/01/27 12:21:48;;;;;;;;;;;;;;;14.67;61.85;102373.56;5095402;28;19920;-82
2022/01/27 12:24:23;;;;;;;;;;;;;;;14.06;64.15;102367.78;5094251;28;19916;-83
2022/01/27 12:26:49;;;;;;;;;;;;;;;14.22;63.96;102365.31;5095836;28;20371;-81
2022/01/27 12:29:22;;;;;;;;;;;;;;;14.27;64.26;102360.63;5094475;28;19920;-83
2022/01/27 12:31:48;;;;;;;;;;;;;;;14.35;63.34;102361.19;5093546;28;19924;-82
2022/01/27 12:34:14;;;;;;;;;;;;;;;14.29;63.54;102358.72;5093836;28;19920;-81
2022/01/27 12:36:39;;;;;;;;;;;;;;;14.43;62.99;102364.50;5093660;28;20418;-82
2022/01/27 12:39:05;;;;;;;;;;;;;;;14.35;63.59;102362.06;5093482;28;20357;-81
2022/01/27 12:41:37;;;;;;;;;;;;;;;14.48;62.63;102373.38;5093501;28;19916;-82
2022/01/27 12:44:09;;;;;;;;;;;;;;;14.48;63.14;102375.22;5093522;28;20011;-81
2022/01/27 12:46:34;;;;;;;;;;;;;;;14.56;62.50;102370.34;5092486;28;19924;-80
2022/01/27 12:49:01;;;;;;;;;;;;;;;14.80;61.49;102371.22;5094586;28;19960;-81
2022/01/27 12:51:26;;;;;;;;;;;;;;;14.84;61.75;102382.88;5093123;28;19927;-81
2022/01/27 12:53:59;;;;;;;;;;;;;;;14.26;62.21;102364.28;5091438;28;19920;-81
2022/01/27 12:56:24;;;;;;;;;;;;;;;15.01;61.32;102374.03;5092771;28;19916;-82
2022/01/27 12:58:49;;;;;;;;;;;;;;;15.05;61.13;102370.19;5092472;28;20266;-80
2022/01/27 13:01:16;;;;;;;;;;;;;;;14.36;62.87;102369.28;5092020;28;20077;-81
2022/01/27 13:03:58;;;;;;;;;;;;;;;14.88;61.34;102358.16;5092800;28;19916;-81
2022/01/27 13:06:27;;;;;;;;;;;;;;;14.74;61.67;102368.75;5092163;28;19919;-84
2022/01/27 13:09:08;;;;;;;;;;;;;;;14.74;62.51;102378.78;5094118;28;19923;-81
2022/01/27 13:11:34;;;;;;;;;;;;;;;14.33;62.63;102353.09;5093364;28;19916;-80
2022/01/27 13:14:08;;;;;;;;;;;;;;;15.00;60.79;102356.75;5094418;28;19916;-82
2022/01/27 13:16:48;;;;;;;;;;;;;;;15.10;59.76;102368.16;5093201;28;20324;-81
2022/01/27 13:21:57;;;;;;;;;;;;;;;14.97;58.74;102367.78;5094426;28;19970;-82
2022/01/27 13:24:23;;;;;;;;;;;;;;;14.83;60.02;102364.75;5092750;28;19994;-82
2022/01/27 13:26:49;;;;;;;;;;;;;;;14.25;61.88;102359.75;5092886;28;19923;-82
2022/01/27 13:29:16;;;;;;;;;;;;;;;14.48;61.45;102375.22;5094004;28;19928;-80
2022/01/27 13:31:42;;;;;;;;;;;;;;;14.17;61.58;102379.13;5093029;28;19974;-82
2022/01/27 13:34:07;;;;;;;;;;;;;;;14.96;59.40;102381.47;5093924;28;19963;-82
2022/01/27 13:36:37;;;;;;;;;;;;;;;15.27;58.15;102380.19;5092881;28;20424;-81
2022/01/27 13:41:34;;;;;;;;;;;;;;;14.12;61.34;102384.75;5093429;28;19916;-82
2022/01/27 13:43:59;;;;;;;;;;;;;;;14.73;60.18;102388.75;5092426;28;19916;-82